Time;durP1;ratioP1;P1;durP2;ratioP2;P2;SDS_P1;SDS_P2;PMS_P1;PMS_P2;Temp;Humidity;BMP_temperature;BMP_pressure;BME280_temperature;BME280_humidity;BME280_pressure;Samples;Min_cycle;Max_cycle;Signal;HPM_P1;HPM_P2
2022/02/23 00:01:31;;;;;;;;;;;;;;;1.51;87.60;98981.28;1734713;82;20430;-67
2022/02/23 00:03:59;;;;;;;;;;;;;;;1.57;87.80;98962.62;1734608;82;20469;-66
2022/02/23 00:06:27;;;;;;;;;;;;;;;1.63;87.89;98979.13;1734519;82;20097;-67
2022/02/23 00:08:54;;;;;;;;;;;;;;;1.70;87.54;98976.14;1734622;82;20092;-67
2022/02/23 00:11:20;;;;;;;;;;;;;;;1.75;87.46;98982.88;1734607;82;21457;-67
2022/02/23 00:13:46;;;;;;;;;;;;;;;1.81;87.44;98978.27;1734431;82;20136;-67
2022/02/23 00:16:13;;;;;;;;;;;;;;;1.85;87.28;98972.05;1734645;82;20096;-66
2022/02/23 00:18:39;;;;;;;;;;;;;;;1.90;87.29;98977.99;1734522;82;20140;-66
2022/02/23 00:21:05;;;;;;;;;;;;;;;1.96;87.16;98966.08;1734789;82;20393;-66
2022/02/23 00:23:32;;;;;;;;;;;;;;;2.03;87.47;98967.15;1734597;82;22319;-66
2022/02/23 00:25:58;;;;;;;;;;;;;;;2.08;87.01;98967.14;1734659;82;20100;-66
2022/02/23 00:28:25;;;;;;;;;;;;;;;2.11;86.69;98951.16;1734639;82;20159;-66
2022/02/23 00:30:52;;;;;;;;;;;;;;;2.12;86.45;98957.37;1734497;82;20084;-66
2022/02/23 00:33:19;;;;;;;;;;;;;;;2.10;86.16;98959.01;1734850;82;20452;-67
2022/02/23 00:35:45;;;;;;;;;;;;;;;2.03;86.02;98965.25;1734559;82;21786;-67
2022/02/23 00:38:12;;;;;;;;;;;;;;;1.99;85.84;98966.88;1734655;82;20521;-67
2022/02/23 00:40:56;;;;;;;;;;;;;;;1.92;86.10;98963.10;1734577;81;20096;-67
2022/02/23 00:43:24;;;;;;;;;;;;;;;1.88;86.58;98970.14;1734673;82;20499;-66
2022/02/23 00:45:51;;;;;;;;;;;;;;;1.87;87.10;98975.28;1733097;82;20436;-66
2022/02/23 00:48:17;;;;;;;;;;;;;;;1.87;87.13;98973.13;1726462;83;23327;-66
2022/02/23 00:50:43;;;;;;;;;;;;;;;1.85;87.20;98972.05;1726679;83;20435;-67
2022/02/23 00:53:10;;;;;;;;;;;;;;;1.84;87.34;98978.54;1726456;83;20145;-67
2022/02/23 00:55:36;;;;;;;;;;;;;;;1.83;87.46;98980.98;1726428;83;20134;-67
2022/02/23 00:58:02;;;;;;;;;;;;;;;1.83;87.50;98982.33;1726491;83;20085;-66
2022/02/23 01:00:28;;;;;;;;;;;;;;;1.84;87.55;98986.66;1726836;83;21114;-66
2022/02/23 01:02:55;;;;;;;;;;;;;;;1.85;87.67;98988.83;1726590;83;20121;-66
2022/02/23 01:05:21;;;;;;;;;;;;;;;1.85;87.54;98984.77;1726628;83;20089;-67
2022/02/23 01:07:49;;;;;;;;;;;;;;;1.82;87.55;98993.42;1726708;83;20113;-67
2022/02/23 01:10:16;;;;;;;;;;;;;;;1.80;87.78;98998.30;1726727;83;20140;-67
2022/02/23 01:12:42;;;;;;;;;;;;;;;1.80;87.95;99000.47;1726626;83;21151;-66
2022/02/23 01:15:08;;;;;;;;;;;;;;;1.81;88.01;98999.38;1726627;83;20109;-66
2022/02/23 01:17:35;;;;;;;;;;;;;;;1.82;87.96;99002.90;1726678;83;20096;-67
2022/02/23 01:20:01;;;;;;;;;;;;;;;1.79;88.67;99002.90;1726589;83;20137;-67
2022/02/23 01:22:28;;;;;;;;;;;;;;;1.78;88.30;98998.57;1726615;83;20113;-68
2022/02/23 01:24:54;;;;;;;;;;;;;;;1.75;88.31;99003.17;1726716;83;21138;-67
2022/02/23 01:27:20;;;;;;;;;;;;;;;1.71;88.14;99006.72;1726558;83;20173;-68
2022/02/23 01:29:46;;;;;;;;;;;;;;;1.66;88.32;99004.83;1726688;83;20456;-67
2022/02/23 01:32:12;;;;;;;;;;;;;;;1.61;88.77;99009.69;1726644;83;20424;-67
2022/02/23 01:34:40;;;;;;;;;;;;;;;1.57;88.71;99002.39;1726691;83;20130;-67
2022/02/23 01:37:06;;;;;;;;;;;;;;;1.53;88.90;99006.72;1726646;83;21152;-67
2022/02/23 01:39:33;;;;;;;;;;;;;;;1.48;89.05;99012.12;1726505;83;20125;-67
2022/02/23 01:41:59;;;;;;;;;;;;;;;1.43;89.33;99013.46;1726680;81;20077;-68
2022/02/23 01:44:26;;;;;;;;;;;;;;;1.40;89.62;99013.45;1726626;83;20151;-67
2022/02/23 01:46:52;;;;;;;;;;;;;;;1.35;89.59;99012.09;1726512;83;20108;-69
2022/02/23 01:49:18;;;;;;;;;;;;;;;1.31;89.74;99019.13;1726953;83;21118;-69
2022/02/23 01:51:44;;;;;;;;;;;;;;;1.26;90.63;99021.28;1726619;83;20152;-69
2022/02/23 01:54:11;;;;;;;;;;;;;;;1.23;90.70;99023.70;1726816;83;20085;-69
2022/02/23 01:56:37;;;;;;;;;;;;;;;1.20;91.50;99025.05;1726677;83;20101;-69
2022/02/23 01:59:03;;;;;;;;;;;;;;;1.17;91.77;99026.94;1726974;83;20089;-70
2022/02/23 02:01:30;;;;;;;;;;;;;;;1.13;91.95;99037.23;1726653;83;21903;-70
2022/02/23 02:03:56;;;;;;;;;;;;;;;1.10;92.50;99045.33;1726691;83;20116;-70
2022/02/23 02:06:24;;;;;;;;;;;;;;;1.11;93.39;99044.80;1726778;83;20431;-70
2022/02/23 02:08:50;;;;;;;;;;;;;;;1.08;93.69;99047.48;1726554;83;22020;-70
2022/02/23 02:11:16;;;;;;;;;;;;;;;1.07;93.58;99047.21;1726646;83;20120;-67
2022/02/23 02:13:42;;;;;;;;;;;;;;;1.06;93.49;99053.70;1726862;83;21119;-67
2022/02/23 02:16:08;;;;;;;;;;;;;;;1.03;93.83;99060.17;1726588;83;20192;-67
2022/02/23 02:18:35;;;;;;;;;;;;;;;1.01;94.11;99063.14;1726673;83;20109;-67
2022/02/23 02:21:01;;;;;;;;;;;;;;;0.98;94.33;99071.77;1726670;83;20093;-67
2022/02/23 02:23:29;;;;;;;;;;;;;;;0.98;95.09;99077.18;1726569;83;20117;-67
2022/02/23 02:25:55;;;;;;;;;;;;;;;1.00;95.35;99075.03;1726767;83;21920;-69
2022/02/23 02:28:21;;;;;;;;;;;;;;;1.03;95.84;99081.80;1726793;83;20177;-69
2022/02/23 02:30:47;;;;;;;;;;;;;;;1.06;95.68;99087.48;1726660;83;20089;-68
2022/02/23 02:33:14;;;;;;;;;;;;;;;1.07;95.56;99083.70;1726906;83;20084;-71
2022/02/23 02:35:40;;;;;;;;;;;;;;;1.09;95.40;99093.72;1726663;83;20436;-71
2022/02/23 02:38:07;;;;;;;;;;;;;;;1.08;95.22;99094.80;1726657;83;21140;-70
2022/02/23 02:40:34;;;;;;;;;;;;;;;1.08;95.70;99102.09;1726452;81;20089;-70
2022/02/23 02:43:04;;;;;;;;;;;;;;;1.04;95.85;99105.86;1726517;83;20093;-68
2022/02/23 02:45:30;;;;;;;;;;;;;;;1.04;95.90;99108.56;1726561;83;20089;-68
2022/02/23 02:47:57;;;;;;;;;;;;;;;1.04;96.17;99108.56;1732704;82;20125;-68
2022/02/23 02:50:24;;;;;;;;;;;;;;;1.05;96.53;99110.73;1734702;82;20101;-68
2022/02/23 02:52:51;;;;;;;;;;;;;;;1.05;96.73;99114.78;1734769;82;20423;-67
2022/02/23 02:55:20;;;;;;;;;;;;;;;1.05;96.40;99119.65;1734669;82;20451;-67
2022/02/23 02:57:46;;;;;;;;;;;;;;;1.03;96.18;99122.34;1734839;82;20552;-67
2022/02/23 03:00:14;;;;;;;;;;;;;;;0.98;96.11;99121.78;1735056;82;20113;-68
2022/02/23 03:02:40;;;;;;;;;;;;;;;0.92;96.58;99114.72;1734582;82;21143;-69
2022/02/23 03:05:07;;;;;;;;;;;;;;;0.89;96.52;99124.70;1732442;82;20440;-69
2022/02/23 03:07:34;;;;;;;;;;;;;;;0.83;96.18;99131.16;1709205;84;20139;-69
2022/02/23 03:10:00;;;;;;;;;;;;;;;0.76;96.29;99124.64;1716025;82;20098;-68
2022/02/23 03:12:26;;;;;;;;;;;;;;;0.71;96.44;99131.90;1714077;82;20474;-69
2022/02/23 03:14:52;;;;;;;;;;;;;;;0.69;96.44;99131.34;1714431;82;23343;-68
2022/02/23 03:17:19;;;;;;;;;;;;;;;0.64;96.08;99138.34;1712950;82;20087;-68
2022/02/23 03:19:45;;;;;;;;;;;;;;;0.59;96.24;99137.50;1724291;82;20104;-68
2022/02/23 03:22:11;;;;;;;;;;;;;;;0.55;96.34;99139.13;1734583;82;20115;-68
2022/02/23 03:24:38;;;;;;;;;;;;;;;0.49;96.51;99142.33;1734540;82;20080;-67
2022/02/23 03:27:04;;;;;;;;;;;;;;;0.45;96.78;99139.05;1734674;82;21192;-66
2022/02/23 03:29:30;;;;;;;;;;;;;;;0.39;96.94;99142.25;1734867;82;20416;-66
2022/02/23 03:31:57;;;;;;;;;;;;;;;0.34;96.96;99143.56;1734776;82;20451;-66
2022/02/23 03:34:23;;;;;;;;;;;;;;;0.30;97.42;99144.61;1734670;82;20100;-66
2022/02/23 03:36:49;;;;;;;;;;;;;;;0.31;97.54;99142.73;1734663;82;20109;-66
2022/02/23 03:39:16;;;;;;;;;;;;;;;0.26;97.10;99152.95;1734540;82;21135;-66
2022/02/23 03:41:42;;;;;;;;;;;;;;;0.23;96.78;99154.00;1734459;81;20072;-68
2022/02/23 03:44:08;;;;;;;;;;;;;;;0.17;96.40;99147.75;1734663;82;20100;-66
2022/02/23 03:46:34;;;;;;;;;;;;;;;0.13;96.17;99152.56;1733820;82;20096;-67
2022/02/23 03:49:01;;;;;;;;;;;;;;;0.10;96.60;99150.38;1726561;83;20112;-66
2022/02/23 03:51:27;;;;;;;;;;;;;;;0.08;96.04;99156.03;1726728;83;21104;-67
2022/02/23 03:53:53;;;;;;;;;;;;;;;0.04;95.27;99146.01;1726386;83;20140;-66
2022/02/23 03:59:08;;;;;;;;;;;;;;;0.03;95.59;99155.17;1709500;82;20148;-66
2022/02/23 04:01:36;;;;;;;;;;;;;;;0.00;94.72;99149.78;1692158;85;20438;-67
2022/02/23 04:04:02;;;;;;;;;;;;;;;0.00;93.76;99155.19;1691831;85;21963;-67
2022/02/23 04:06:30;;;;;;;;;;;;;;;-0.04;93.37;99152.72;1698141;82;20408;-67
2022/02/23 04:09:00;;;;;;;;;;;;;;;-0.09;92.43;99154.83;1715267;82;20159;-67
2022/02/23 04:11:27;;;;;;;;;;;;;;;-0.12;91.77;99161.27;1707623;82;20131;-66
2022/02/23 04:13:53;;;;;;;;;;;;;;;-0.21;91.09;99155.52;1691828;85;20144;-67
2022/02/23 04:16:19;;;;;;;;;;;;;;;-0.27;90.51;99149.80;1697749;82;21130;-67
2022/02/23 04:18:46;;;;;;;;;;;;;;;-0.31;90.18;99155.95;1709413;83;20154;-67
2022/02/23 04:21:13;;;;;;;;;;;;;;;-0.33;91.09;99162.95;1708829;84;20102;-66
2022/02/23 04:23:39;;;;;;;;;;;;;;;-0.32;90.53;99160.53;1708760;84;20087;-66
2022/02/23 04:26:05;;;;;;;;;;;;;;;-0.37;89.77;99169.38;1708889;84;20120;-67
2022/02/23 04:28:32;;;;;;;;;;;;;;;-0.42;89.19;99167.17;1708778;84;21158;-67
2022/02/23 04:30:58;;;;;;;;;;;;;;;-0.49;88.85;99178.15;1708786;84;20115;-67
2022/02/23 04:33:25;;;;;;;;;;;;;;;-0.55;89.42;99177.80;1708745;84;20079;-66
2022/02/23 04:35:52;;;;;;;;;;;;;;;-0.58;89.02;99183.73;1708714;84;20083;-68
2022/02/23 04:38:18;;;;;;;;;;;;;;;-0.63;88.59;99182.86;1708887;84;20086;-68
2022/02/23 04:40:45;;;;;;;;;;;;;;;-0.68;88.42;99191.70;1708740;82;21172;-67
2022/02/23 04:43:12;;;;;;;;;;;;;;;-0.72;88.25;99198.13;1708862;84;20122;-68
2022/02/23 04:45:38;;;;;;;;;;;;;;;-0.75;88.70;99195.92;1680482;84;20086;-68
2022/02/23 04:48:05;;;;;;;;;;;;;;;-0.77;88.32;99203.98;1709062;82;20106;-69
2022/02/23 04:50:35;;;;;;;;;;;;;;;-0.81;88.14;99210.41;1716176;82;20185;-68
2022/02/23 04:53:01;;;;;;;;;;;;;;;-0.85;88.01;99210.62;1734564;82;21174;-66
2022/02/23 04:55:27;;;;;;;;;;;;;;;-0.87;87.92;99213.28;1734479;82;20088;-67
2022/02/23 04:57:54;;;;;;;;;;;;;;;-0.92;87.78;99219.41;1734534;82;20120;-67
2022/02/23 05:00:20;;;;;;;;;;;;;;;-0.95;88.02;99223.95;1711467;83;20096;-67
2022/02/23 05:02:47;;;;;;;;;;;;;;;-0.98;88.05;99223.10;1720638;83;20184;-66
2022/02/23 05:05:13;;;;;;;;;;;;;;;-0.98;87.99;99230.38;1723803;83;21115;-67
2022/02/23 05:07:40;;;;;;;;;;;;;;;-1.01;87.99;99236.54;1721008;83;20131;-65
2022/02/23 05:10:08;;;;;;;;;;;;;;;-1.02;88.21;99228.17;1719831;83;20113;-65
2022/02/23 05:12:34;;;;;;;;;;;;;;;-1.03;88.54;99235.97;1723872;83;20097;-65
2022/02/23 05:15:00;;;;;;;;;;;;;;;-1.05;88.43;99235.94;1724219;83;20084;-64
2022/02/23 05:17:26;;;;;;;;;;;;;;;-1.10;88.15;99246.63;1723834;83;21072;-65
2022/02/23 05:19:53;;;;;;;;;;;;;;;-1.17;88.08;99243.33;1724035;83;20459;-66
2022/02/23 05:22:19;;;;;;;;;;;;;;;-1.26;88.12;99249.66;1723838;83;20408;-68
2022/02/23 05:24:45;;;;;;;;;;;;;;;-1.32;88.35;99248.48;1724039;83;20528;-67
2022/02/23 05:27:11;;;;;;;;;;;;;;;-1.36;88.68;99252.19;1723313;83;20085;-67
2022/02/23 05:29:38;;;;;;;;;;;;;;;-1.39;89.09;99254.84;1724055;83;21168;-68
2022/02/23 05:32:05;;;;;;;;;;;;;;;-1.40;89.33;99263.98;1724058;83;20132;-65
2022/02/23 05:34:31;;;;;;;;;;;;;;;-1.38;89.67;99263.20;1723870;83;20117;-68
2022/02/23 05:36:58;;;;;;;;;;;;;;;-1.32;90.76;99253.86;1723267;83;20580;-67
2022/02/23 05:39:24;;;;;;;;;;;;;;;-1.24;90.96;99262.34;1714744;83;20312;-67
2022/02/23 05:41:50;;;;;;;;;;;;;;;-1.17;90.81;99268.38;1723807;82;21121;-67
2022/02/23 05:44:17;;;;;;;;;;;;;;;-1.11;90.70;99266.02;1723882;83;20444;-66
2022/02/23 05:46:43;;;;;;;;;;;;;;;-1.02;90.62;99270.47;1723890;83;20120;-68
2022/02/23 05:49:10;;;;;;;;;;;;;;;-0.94;90.86;99272.74;1726631;83;20121;-69
2022/02/23 05:51:38;;;;;;;;;;;;;;;-0.83;90.44;99276.40;1726317;83;20144;-81
2022/02/23 05:54:05;;;;;;;;;;;;;;;-0.76;90.13;99271.12;1726117;82;21596;-86
2022/02/23 05:56:31;;;;;;;;;;;;;;;-0.70;89.78;99276.86;1727022;83;20085;-80
2022/02/23 05:58:58;;;;;;;;;;;;;;;-0.64;89.67;99280.98;1726991;83;20077;-76
2022/02/23 06:01:24;;;;;;;;;;;;;;;-0.58;89.80;99282.14;1727135;82;20464;-78
2022/02/23 06:03:50;;;;;;;;;;;;;;;-0.51;89.56;99280.58;1727196;83;20085;-77
2022/02/23 06:06:19;;;;;;;;;;;;;;;-0.44;89.02;99290.13;1726087;82;20101;-69
2022/02/23 06:08:45;;;;;;;;;;;;;;;-0.38;88.84;99292.35;1727049;83;20097;-67
2022/02/23 06:11:13;;;;;;;;;;;;;;;-0.31;88.60;99292.98;1727162;83;20121;-86
2022/02/23 06:13:40;;;;;;;;;;;;;;;-0.24;88.56;99299.01;1727306;82;20625;-73
2022/02/23 06:16:06;;;;;;;;;;;;;;;-0.16;87.46;99293.70;1727235;83;20475;-68
2022/02/23 06:18:34;;;;;;;;;;;;;;;-0.08;86.81;99304.05;1725508;83;21151;-67
2022/02/23 06:21:01;;;;;;;;;;;;;;;-0.01;86.22;99299.28;1726709;83;20117;-68
2022/02/23 06:23:27;;;;;;;;;;;;;;;0.06;85.62;99299.05;1727188;83;20113;-67
2022/02/23 06:25:53;;;;;;;;;;;;;;;0.13;85.73;99296.44;1727174;83;20077;-67
2022/02/23 06:28:20;;;;;;;;;;;;;;;0.23;85.62;99293.03;1727591;83;20161;-67
2022/02/23 06:30:46;;;;;;;;;;;;;;;0.31;84.88;99294.75;1727083;83;23333;-67
2022/02/23 06:33:12;;;;;;;;;;;;;;;0.39;84.07;99296.17;1726979;83;21662;-73
2022/02/23 06:35:38;;;;;;;;;;;;;;;0.45;84.09;99296.50;1726993;83;20085;-73
2022/02/23 06:38:05;;;;;;;;;;;;;;;0.54;84.07;99294.16;1727016;83;21980;-74
2022/02/23 06:40:31;;;;;;;;;;;;;;;0.61;83.40;99296.89;1727186;82;20084;-73
2022/02/23 06:42:58;;;;;;;;;;;;;;;0.65;82.22;99302.06;1702443;83;21074;-67
2022/02/23 06:45:24;;;;;;;;;;;;;;;0.66;82.39;99305.05;1726970;83;20085;-71
2022/02/23 06:47:50;;;;;;;;;;;;;;;0.71;81.92;99306.98;1727033;83;20423;-68
2022/02/23 06:50:17;;;;;;;;;;;;;;;0.76;82.10;99304.86;1727372;82;20480;-82
2022/02/23 06:52:43;;;;;;;;;;;;;;;0.85;82.00;99306.83;1727196;83;20112;-78
2022/02/23 06:55:11;;;;;;;;;;;;;;;0.92;80.93;99312.02;1726955;83;21136;-91
2022/02/23 06:57:39;;;;;;;;;;;;;;;1.01;80.81;99308.30;1725514;83;20093;-78
2022/02/23 07:00:06;;;;;;;;;;;;;;;1.32;78.90;99308.77;1727316;83;20097;-75
2022/02/23 07:02:33;;;;;;;;;;;;;;;1.76;77.17;99311.14;1727011;83;20559;-74
2022/02/23 07:05:00;;;;;;;;;;;;;;;2.27;76.30;99315.67;1727212;83;20097;-75
2022/02/23 07:07:26;;;;;;;;;;;;;;;2.76;73.95;99316.55;1727096;83;21150;-74
2022/02/23 07:09:52;;;;;;;;;;;;;;;3.21;71.34;99309.47;1726974;83;20132;-74
2022/02/23 07:12:18;;;;;;;;;;;;;;;3.59;71.13;99304.76;1727105;82;20132;-68
2022/02/23 07:14:45;;;;;;;;;;;;;;;3.92;67.90;99325.02;1723851;83;20112;-68
2022/02/23 07:17:11;;;;;;;;;;;;;;;4.24;68.47;99314.27;1720565;83;20101;-69
2022/02/23 07:19:39;;;;;;;;;;;;;;;4.58;64.63;99322.50;1726640;82;20097;-68
2022/02/23 07:22:05;;;;;;;;;;;;;;;4.72;62.73;99327.55;1719130;82;20402;-68
2022/02/23 07:24:35;;;;;;;;;;;;;;;4.80;61.97;99323.41;1717134;83;32715;-68
2022/02/23 07:27:01;;;;;;;;;;;;;;;4.79;62.12;99335.38;1717010;83;20162;-79
2022/02/23 07:29:28;;;;;;;;;;;;;;;4.98;60.12;99333.61;1715587;83;20102;-76
2022/02/23 07:31:54;;;;;;;;;;;;;;;5.06;60.26;99333.00;1711573;83;21880;-76
2022/02/23 07:34:21;;;;;;;;;;;;;;;5.19;59.26;99340.52;1712053;84;20106;-71
2022/02/23 07:36:49;;;;;;;;;;;;;;;5.37;58.40;99330.80;1710362;84;20145;-77
2022/02/23 07:39:17;;;;;;;;;;;;;;;5.38;56.78;99342.50;1715883;83;20226;-88
2022/02/23 07:41:44;;;;;;;;;;;;;;;5.22;55.85;99341.28;1720629;83;20148;-79
2022/02/23 07:44:11;;;;;;;;;;;;;;;5.11;56.58;99343.85;1726914;83;21537;-80
2022/02/23 07:46:37;;;;;;;;;;;;;;;5.16;56.89;99354.70;1716957;83;20452;-79
2022/02/23 07:49:04;;;;;;;;;;;;;;;5.36;56.07;99359.13;1722239;83;20160;-84
2022/02/23 07:51:31;;;;;;;;;;;;;;;5.54;56.39;99350.80;1720247;83;20189;-76
2022/02/23 07:53:58;;;;;;;;;;;;;;;5.77;55.42;99345.93;1727061;83;20084;-75
2022/02/23 07:56:24;;;;;;;;;;;;;;;5.95;53.56;99352.00;1727263;83;21099;-80
2022/02/23 07:58:51;;;;;;;;;;;;;;;6.01;54.08;99357.39;1726927;83;20125;-72
2022/02/23 08:01:34;;;;;;;;;;;;;;;5.99;52.50;99352.78;1722405;83;20425;-77
2022/02/23 08:04:01;;;;;;;;;;;;;;;5.91;51.71;99344.69;1720699;83;20212;-77
2022/02/23 08:06:28;;;;;;;;;;;;;;;5.88;52.11;99350.14;1724927;83;20152;-76
2022/02/23 08:08:56;;;;;;;;;;;;;;;5.81;51.72;99343.41;1719564;83;21166;-73
2022/02/23 08:11:23;;;;;;;;;;;;;;;5.79;52.36;99351.06;1698388;83;20474;-74
2022/02/23 08:13:56;;;;;;;;;;;;;;;5.83;51.78;99343.38;1692636;85;20430;-74
2022/02/23 08:21:55;;;;;;;;;;;;;;;6.56;49.93;99347.13;1692817;85;21144;-76
2022/02/23 08:24:22;;;;;;;;;;;;;;;6.75;48.25;99343.03;1692396;85;20426;-75
2022/02/23 08:26:48;;;;;;;;;;;;;;;6.79;46.77;99340.53;1692462;85;20119;-75
2022/02/23 08:29:14;;;;;;;;;;;;;;;6.74;46.66;99343.33;1692666;85;20087;-72
2022/02/23 08:31:41;;;;;;;;;;;;;;;6.74;46.03;99341.41;1692645;85;20087;-71
2022/02/23 08:34:07;;;;;;;;;;;;;;;6.73;47.11;99342.52;1692631;85;21962;-72
2022/02/23 08:36:33;;;;;;;;;;;;;;;6.81;45.88;99336.95;1692542;85;20103;-68
2022/02/23 08:38:59;;;;;;;;;;;;;;;6.92;45.52;99335.69;1692541;85;20091;-71
2022/02/23 08:41:27;;;;;;;;;;;;;;;7.03;45.70;99339.86;1692520;83;20100;-69
2022/02/23 08:43:53;;;;;;;;;;;;;;;7.29;45.18;99336.97;1692542;85;20127;-70
2022/02/23 08:46:20;;;;;;;;;;;;;;;7.59;44.29;99333.42;1692443;85;21158;-71
2022/02/23 08:48:46;;;;;;;;;;;;;;;7.76;44.44;99335.57;1696808;84;20150;-68
2022/02/23 08:51:12;;;;;;;;;;;;;;;7.98;44.25;99333.52;1707818;84;20155;-68
2022/02/23 08:53:39;;;;;;;;;;;;;;;8.39;43.68;99335.67;1708015;83;20091;-68
2022/02/23 08:56:06;;;;;;;;;;;;;;;8.65;41.30;99338.66;1723022;83;20448;-66
2022/02/23 08:58:32;;;;;;;;;;;;;;;8.46;40.91;99342.09;1722354;83;21897;-66
2022/02/23 09:00:58;;;;;;;;;;;;;;;8.06;41.48;99338.27;1720993;82;20170;-65
2022/02/23 09:03:26;;;;;;;;;;;;;;;7.94;42.68;99352.44;1720213;83;20115;-67
2022/02/23 09:05:52;;;;;;;;;;;;;;;8.01;42.61;99344.66;1722508;83;20173;-65
2022/02/23 09:11:44;;;;;;;;;;;;;;;8.34;41.09;99347.28;1717282;82;20101;-68
2022/02/23 09:14:11;;;;;;;;;;;;;;;8.34;41.34;99346.72;1719548;83;20142;-68
2022/02/23 09:16:38;;;;;;;;;;;;;;;8.45;41.20;99351.42;1717853;83;20435;-66
2022/02/23 09:19:04;;;;;;;;;;;;;;;8.57;40.57;99345.67;1721493;83;20148;-65
2022/02/23 09:24:54;;;;;;;;;;;;;;;8.69;40.24;99354.69;1716029;82;20086;-66
2022/02/23 09:27:21;;;;;;;;;;;;;;;8.83;40.88;99348.62;1718738;82;20443;-66
2022/02/23 09:29:47;;;;;;;;;;;;;;;9.03;40.64;99349.27;1721112;83;20108;-67
2022/02/23 09:32:15;;;;;;;;;;;;;;;9.03;40.36;99350.08;1720682;83;20084;-66
2022/02/23 09:34:42;;;;;;;;;;;;;;;9.10;40.15;99340.88;1722521;83;20083;-67
2022/02/23 09:37:09;;;;;;;;;;;;;;;9.15;40.56;99344.86;1722524;83;21776;-66
2022/02/23 09:39:35;;;;;;;;;;;;;;;9.26;39.54;99347.57;1732425;82;20082;-68
2022/02/23 09:42:02;;;;;;;;;;;;;;;9.32;40.04;99350.99;1732459;83;20176;-67
2022/02/23 09:44:31;;;;;;;;;;;;;;;9.40;39.29;99348.88;1731271;83;20427;-67
2022/02/23 09:47:00;;;;;;;;;;;;;;;9.51;39.82;99336.53;1721825;82;20140;-68
2022/02/23 09:49:26;;;;;;;;;;;;;;;9.67;38.42;99347.10;1703682;83;21066;-68
2022/02/23 09:51:53;;;;;;;;;;;;;;;9.78;38.36;99349.27;1677118;84;20117;-68
2022/02/23 09:54:20;;;;;;;;;;;;;;;9.98;37.49;99351.17;1701325;84;20103;-69
2022/02/23 09:56:47;;;;;;;;;;;;;;;9.82;37.41;99349.44;1750914;82;20165;-68
2022/02/23 09:59:13;;;;;;;;;;;;;;;9.64;37.45;99351.28;1755240;81;20129;-67
2022/02/23 10:01:40;;;;;;;;;;;;;;;9.54;38.07;99350.98;1754445;82;21881;-68
2022/02/23 10:04:07;;;;;;;;;;;;;;;9.59;38.23;99350.05;1732169;82;20508;-68
2022/02/23 10:06:36;;;;;;;;;;;;;;;9.40;37.00;99350.25;1755618;82;20433;-68
2022/02/23 10:09:06;;;;;;;;;;;;;;;9.01;38.02;99346.03;1755718;82;20503;-69
2022/02/23 10:11:33;;;;;;;;;;;;;;;8.77;38.86;99349.05;1755541;82;20151;-67
2022/02/23 10:14:02;;;;;;;;;;;;;;;8.63;38.87;99344.20;1755614;82;21148;-67
2022/02/23 10:16:33;;;;;;;;;;;;;;;8.43;38.29;99339.97;1755517;82;20120;-67
2022/02/23 10:19:08;;;;;;;;;;;;;;;8.33;39.63;99347.84;1755516;82;20146;-67
2022/02/23 10:21:59;;;;;;;;;;;;;;;8.39;39.49;99347.17;1755114;81;20114;-67
2022/02/23 10:24:29;;;;;;;;;;;;;;;8.70;38.71;99344.00;1755716;82;20083;-67
2022/02/23 10:27:02;;;;;;;;;;;;;;;8.77;37.65;99343.57;1755929;81;21782;-67
2022/02/23 10:29:31;;;;;;;;;;;;;;;8.78;37.66;99344.63;1755409;81;20103;-67
2022/02/23 10:31:57;;;;;;;;;;;;;;;8.88;38.43;99336.19;1755795;81;20461;-66
2022/02/23 10:34:25;;;;;;;;;;;;;;;8.89;38.32;99328.78;1736878;81;20171;-67
2022/02/23 10:37:03;;;;;;;;;;;;;;;8.80;38.36;99338.85;1726927;83;20427;-67
2022/02/23 10:39:41;;;;;;;;;;;;;;;8.68;38.89;99333.11;1727049;83;21728;-67
2022/02/23 10:42:14;;;;;;;;;;;;;;;8.77;38.84;99332.63;1724832;81;20476;-68
2022/02/23 10:44:44;;;;;;;;;;;;;;;8.96;39.66;99329.17;1729563;81;20082;-68
2022/02/23 10:47:25;;;;;;;;;;;;;;;9.17;39.24;99328.12;1701929;84;20308;-68
2022/02/23 10:50:01;;;;;;;;;;;;;;;9.39;39.68;99325.34;1727791;82;20117;-68
2022/02/23 10:52:29;;;;;;;;;;;;;;;9.61;39.37;99321.77;1697952;84;21173;-68
2022/02/23 10:55:19;;;;;;;;;;;;;;;9.60;39.41;99328.36;1698092;84;20422;-68
2022/02/23 10:57:50;;;;;;;;;;;;;;;9.67;39.28;99333.39;1698010;84;20146;-68
2022/02/23 11:00:26;;;;;;;;;;;;;;;9.81;39.48;99327.27;1698360;84;20146;-69
2022/02/23 11:02:52;;;;;;;;;;;;;;;9.94;39.20;99323.58;1698112;84;20119;-69
2022/02/23 11:05:23;;;;;;;;;;;;;;;9.87;40.42;99327.34;1698097;84;21075;-69
2022/02/23 11:07:47;;;;;;;;;;;;;;;9.87;40.04;99324.03;1697639;84;20134;-68
2022/02/23 11:10:14;;;;;;;;;;;;;;;9.82;40.49;99326.91;1698186;84;20119;-69
2022/02/23 11:12:45;;;;;;;;;;;;;;;9.69;40.65;99322.37;1698056;84;20091;-69
2022/02/23 11:15:15;;;;;;;;;;;;;;;9.64;40.72;99323.06;1698282;84;20151;-69
2022/02/23 11:17:44;;;;;;;;;;;;;;;9.63;40.92;99322.25;1697906;84;23290;-69
2022/02/23 11:20:10;;;;;;;;;;;;;;;9.48;41.16;99322.66;1700564;84;20085;-68
2022/02/23 11:22:39;;;;;;;;;;;;;;;9.12;41.30;99320.03;1703964;84;20462;-68
2022/02/23 11:25:07;;;;;;;;;;;;;;;8.64;42.35;99326.66;1704020;83;20443;-68
2022/02/23 11:27:33;;;;;;;;;;;;;;;8.35;42.99;99322.36;1712283;84;20093;-68
2022/02/23 11:30:05;;;;;;;;;;;;;;;8.25;43.65;99323.91;1712453;84;21124;-69
2022/02/23 11:32:33;;;;;;;;;;;;;;;8.18;43.80;99320.77;1712180;84;20170;-67
2022/02/23 11:34:59;;;;;;;;;;;;;;;8.08;43.55;99318.28;1696148;84;20104;-67
2022/02/23 11:37:33;;;;;;;;;;;;;;;8.01;43.55;99309.11;1712122;84;20423;-67
2022/02/23 11:40:00;;;;;;;;;;;;;;;8.03;43.81;99310.18;1712385;84;20096;-67
2022/02/23 11:42:27;;;;;;;;;;;;;;;8.09;43.17;99306.20;1712223;84;21171;-67
2022/02/23 11:45:05;;;;;;;;;;;;;;;8.11;43.51;99297.94;1712407;84;20471;-67
2022/02/23 11:47:33;;;;;;;;;;;;;;;8.17;43.61;99305.48;1712272;84;20419;-67
2022/02/23 11:50:07;;;;;;;;;;;;;;;8.21;42.65;99299.66;1719183;83;20133;-66
2022/02/23 11:52:44;;;;;;;;;;;;;;;8.20;41.93;99295.30;1730526;83;20072;-68
2022/02/23 11:55:13;;;;;;;;;;;;;;;8.05;42.15;99302.48;1730447;83;21189;-68
2022/02/23 11:57:44;;;;;;;;;;;;;;;7.91;43.75;99290.19;1730536;83;20085;-68
2022/02/23 12:00:13;;;;;;;;;;;;;;;7.96;42.48;99301.02;1730514;83;20101;-68
2022/02/23 12:02:41;;;;;;;;;;;;;;;7.98;40.70;99298.79;1730598;83;20125;-68
2022/02/23 12:05:09;;;;;;;;;;;;;;;7.94;40.00;99304.05;1730484;83;20499;-68
2022/02/23 12:07:46;;;;;;;;;;;;;;;7.90;39.73;99303.59;1730640;83;21141;-68
2022/02/23 12:10:14;;;;;;;;;;;;;;;7.85;39.68;99301.77;1730349;83;20101;-67
2022/02/23 12:12:45;;;;;;;;;;;;;;;7.85;39.87;99303.70;1730462;83;20096;-67
2022/02/23 12:15:35;;;;;;;;;;;;;;;7.81;40.37;99308.15;1730358;83;20439;-67
2022/02/23 12:18:16;;;;;;;;;;;;;;;7.78;40.62;99304.09;1730498;83;20424;-67
2022/02/23 12:20:48;;;;;;;;;;;;;;;7.71;41.15;99306.98;1730383;83;21087;-67
2022/02/23 12:23:21;;;;;;;;;;;;;;;7.79;41.86;99304.91;1730560;83;20084;-67
2022/02/23 12:25:51;;;;;;;;;;;;;;;7.97;42.23;99303.19;1730443;83;20147;-67
2022/02/23 12:28:20;;;;;;;;;;;;;;;7.90;42.16;99302.23;1730448;83;20156;-67
2022/02/23 12:30:59;;;;;;;;;;;;;;;7.80;42.43;99302.43;1730087;82;20463;-67
2022/02/23 12:33:25;;;;;;;;;;;;;;;7.62;42.92;99301.41;1730830;83;21112;-67
2022/02/23 12:35:52;;;;;;;;;;;;;;;7.48;43.33;99303.33;1730325;83;20175;-67
2022/02/23 12:38:22;;;;;;;;;;;;;;;7.42;43.95;99295.78;1730363;83;20085;-67
2022/02/23 12:40:50;;;;;;;;;;;;;;;7.45;44.26;99298.47;1729514;83;20088;-67
2022/02/23 12:43:16;;;;;;;;;;;;;;;7.56;44.37;99302.61;1730434;83;20088;-67
2022/02/23 12:45:50;;;;;;;;;;;;;;;7.63;44.14;99297.00;1730421;83;21059;-67
2022/02/23 12:48:17;;;;;;;;;;;;;;;7.78;44.02;99297.27;1730267;83;20404;-67
2022/02/23 12:50:44;;;;;;;;;;;;;;;7.89;43.66;99297.88;1718401;83;20448;-67
2022/02/23 12:53:12;;;;;;;;;;;;;;;7.76;43.86;99292.66;1709378;84;20178;-67
2022/02/23 12:55:38;;;;;;;;;;;;;;;7.63;44.26;99299.73;1691065;84;20112;-67
2022/02/23 12:58:06;;;;;;;;;;;;;;;7.58;44.65;99299.02;1709310;84;22883;-67
2022/02/23 13:00:34;;;;;;;;;;;;;;;7.54;44.54;99294.72;1709243;84;20073;-67
2022/02/23 13:03:07;;;;;;;;;;;;;;;7.51;44.13;99299.41;1709487;84;20133;-67
2022/02/23 13:05:37;;;;;;;;;;;;;;;7.58;44.15;99300.38;1709272;84;20175;-67
2022/02/23 13:08:08;;;;;;;;;;;;;;;7.73;44.41;99295.19;1709503;84;20141;-67
2022/02/23 13:10:33;;;;;;;;;;;;;;;7.91;43.63;99291.00;1709309;83;21161;-67
2022/02/23 13:13:00;;;;;;;;;;;;;;;8.11;43.26;99294.40;1709317;84;20109;-67